Time;durP1;ratioP1;P1;durP2;ratioP2;P2;SDS_P1;SDS_P2;PMS_P1;PMS_P2;Temp;Humidity;BMP_temperature;BMP_pressure;BME280_temperature;BME280_humidity;BME280_pressure;Samples;Min_cycle;Max_cycle;Signal;HPM_P1;HPM_P2
2022/03/23 00:00:31;;;;;;;19.75;10.13;;;4.20;43.80;;;;;;5051448;28;20232;-64
2022/03/23 00:02:58;;;;;;;21.60;12.18;;;4.20;44.20;;;;;;5051750;28;20190;-64
2022/03/23 00:05:28;;;;;;;19.40;11.05;;;4.20;44.40;;;;;;5054380;28;20190;-63
2022/03/23 00:07:57;;;;;;;15.63;9.32;;;4.20;43.90;;;;;;5051675;28;20197;-63
2022/03/23 00:10:24;;;;;;;16.95;11.20;;;4.20;42.50;;;;;;5050646;28;20293;-64
2022/03/23 00:12:52;;;;;;;13.90;9.90;;;4.10;42.80;;;;;;5051111;28;20213;-63
2022/03/23 00:15:19;;;;;;;16.20;10.75;;;4.10;43.50;;;;;;5051376;28;20293;-63
2022/03/23 00:17:47;;;;;;;18.33;10.18;;;4.00;43.70;;;;;;5051187;28;20194;-63
2022/03/23 00:20:14;;;;;;;14.45;10.18;;;4.00;43.70;;;;;;5049186;28;20186;-63
2022/03/23 00:22:42;;;;;;;17.92;11.35;;;4.00;44.20;;;;;;5051261;28;20198;-63
2022/03/23 00:25:11;;;;;;;16.13;11.27;;;4.00;44.10;;;;;;5051015;28;20190;-63
2022/03/23 00:27:38;;;;;;;16.15;10.27;;;3.90;43.80;;;;;;5050456;28;20201;-63
2022/03/23 00:30:07;;;;;;;13.65;9.68;;;3.90;44.50;;;;;;5050841;28;20194;-64
2022/03/23 00:32:34;;;;;;;19.20;10.73;;;3.90;45.30;;;;;;5050945;28;20562;-63
2022/03/23 00:35:02;;;;;;;15.95;10.75;;;4.00;45.90;;;;;;5051168;28;20198;-65
2022/03/23 00:37:29;;;;;;;13.15;8.75;;;3.90;45.50;;;;;;5053373;28;20251;-64
2022/03/23 00:39:56;;;;;;;18.27;11.52;;;4.00;46.20;;;;;;5051040;28;20186;-63
2022/03/23 00:42:24;;;;;;;13.73;9.52;;;4.00;46.40;;;;;;5051033;28;20236;-63
2022/03/23 00:44:51;;;;;;;15.23;10.30;;;3.90;45.60;;;;;;5050921;28;20613;-64
2022/03/23 00:47:18;;;;;;;14.70;10.35;;;3.90;45.10;;;;;;5050795;28;20194;-64
2022/03/23 00:49:46;;;;;;;15.38;9.75;;;3.80;44.30;;;;;;5047856;28;20203;-63
2022/03/23 00:52:12;;;;;;;16.60;10.63;;;3.80;45.00;;;;;;5050720;28;20313;-63
2022/03/23 00:54:40;;;;;;;13.73;9.20;;;3.80;45.90;;;;;;5049438;28;20202;-64
2022/03/23 00:57:08;;;;;;;18.42;11.05;;;3.80;46.00;;;;;;5050976;28;20269;-63
2022/03/23 00:59:36;;;;;;;13.75;9.10;;;3.70;46.30;;;;;;5050777;28;20198;-63
2022/03/23 01:02:05;;;;;;;16.55;11.32;;;3.70;46.50;;;;;;5050732;28;20198;-63
2022/03/23 01:04:32;;;;;;;19.00;11.63;;;3.70;45.60;;;;;;5052047;28;20195;-63
2022/03/23 01:06:59;;;;;;;15.65;9.70;;;3.70;46.00;;;;;;5050660;28;20190;-63
2022/03/23 01:09:26;;;;;;;19.10;10.50;;;3.60;46.10;;;;;;5051151;28;20718;-63
2022/03/23 01:11:55;;;;;;;16.95;11.02;;;3.60;45.60;;;;;;5052221;28;20554;-63
2022/03/23 01:14:23;;;;;;;18.92;11.80;;;3.50;45.50;;;;;;5052085;28;20187;-63
2022/03/23 01:16:53;;;;;;;15.00;10.90;;;3.40;45.50;;;;;;5052173;28;20244;-63
2022/03/23 01:19:25;;;;;;;16.02;10.68;;;3.30;45.60;;;;;;5066482;28;20632;-63
2022/03/23 01:21:52;;;;;;;18.02;10.80;;;3.10;46.00;;;;;;5072322;28;20194;-63
2022/03/23 01:24:19;;;;;;;14.50;9.43;;;3.10;46.30;;;;;;5057647;28;20197;-63
2022/03/23 01:26:46;;;;;;;17.00;9.07;;;3.10;46.50;;;;;;5052128;28;20193;-63
2022/03/23 01:29:13;;;;;;;16.00;9.93;;;3.10;46.50;;;;;;5064620;28;20547;-64
2022/03/23 01:31:40;;;;;;;15.07;9.52;;;3.10;46.30;;;;;;5072008;28;20722;-63
2022/03/23 01:34:09;;;;;;;15.10;10.50;;;3.10;46.20;;;;;;5060271;28;20275;-63
2022/03/23 01:36:36;;;;;;;16.90;9.93;;;3.10;46.60;;;;;;5052010;28;20244;-63
2022/03/23 01:39:03;;;;;;;16.35;10.60;;;3.10;47.20;;;;;;5061680;28;20296;-63
2022/03/23 01:41:36;;;;;;;11.40;8.75;;;3.10;47.60;;;;;;5076104;28;20193;-63
2022/03/23 01:44:13;;;;;;;17.23;9.63;;;3.10;47.80;;;;;;5066102;28;20190;-63
2022/03/23 01:46:59;;;;;;;14.95;9.93;;;3.10;47.30;;;;;;5055998;28;20185;-63
2022/03/23 01:49:28;;;;;;;15.95;10.10;;;3.00;47.00;;;;;;5067680;28;20207;-63
2022/03/23 01:51:55;;;;;;;13.48;9.68;;;3.00;47.30;;;;;;5073382;28;20221;-63
2022/03/23 01:54:22;;;;;;;17.85;12.25;;;3.00;47.20;;;;;;5075772;28;20739;-63
2022/03/23 01:56:50;;;;;;;13.75;9.63;;;2.90;47.90;;;;;;5065484;28;20218;-64
2022/03/23 01:59:18;;;;;;;17.77;10.25;;;2.90;48.70;;;;;;5055511;28;20538;-63
2022/03/23 02:01:46;;;;;;;15.88;10.10;;;2.90;48.90;;;;;;5063904;28;20648;-63
2022/03/23 02:04:13;;;;;;;21.40;10.65;;;2.90;48.50;;;;;;5075733;28;20602;-63
2022/03/23 02:06:41;;;;;;;13.02;8.85;;;2.80;49.00;;;;;;5067983;28;20251;-64
2022/03/23 02:09:08;;;;;;;13.15;8.57;;;2.80;49.20;;;;;;5055655;28;20553;-63
2022/03/23 02:11:36;;;;;;;17.60;9.00;;;2.80;49.10;;;;;;5061153;28;20753;-63
2022/03/23 02:14:04;;;;;;;13.02;9.30;;;2.70;48.80;;;;;;5075331;28;20194;-63
2022/03/23 02:16:31;;;;;;;12.35;9.13;;;2.60;49.10;;;;;;5073436;28;20212;-63
2022/03/23 02:18:58;;;;;;;12.55;8.80;;;2.50;49.30;;;;;;5075214;28;20189;-63
2022/03/23 02:21:25;;;;;;;17.30;9.35;;;2.50;49.30;;;;;;5071980;28;20214;-63
2022/03/23 02:23:53;;;;;;;15.55;8.93;;;2.50;49.40;;;;;;5055177;28;20240;-63
2022/03/23 02:26:20;;;;;;;14.55;9.10;;;2.50;49.20;;;;;;5056428;28;20194;-63
2022/03/23 02:28:47;;;;;;;17.50;9.57;;;2.50;50.30;;;;;;5075057;28;20246;-63
2022/03/23 02:31:14;;;;;;;13.20;8.15;;;2.50;50.30;;;;;;5074761;28;20219;-64
2022/03/23 02:33:41;;;;;;;16.02;8.80;;;2.40;50.70;;;;;;5054360;28;20218;-63
2022/03/23 02:36:08;;;;;;;13.30;8.52;;;2.40;50.90;;;;;;5053770;28;20194;-63
2022/03/23 02:38:35;;;;;;;13.20;8.73;;;2.40;50.90;;;;;;5070673;28;20194;-63
2022/03/23 02:41:04;;;;;;;15.88;9.98;;;2.40;50.80;;;;;;5073725;28;20189;-63
2022/03/23 02:43:31;;;;;;;13.20;8.13;;;2.40;50.70;;;;;;5072323;28;20273;-63
2022/03/23 02:45:58;;;;;;;14.93;8.73;;;2.40;50.90;;;;;;5073719;28;20223;-63
2022/03/23 02:48:25;;;;;;;11.63;8.35;;;2.40;50.90;;;;;;5071874;28;20194;-63
2022/03/23 02:50:52;;;;;;;15.00;9.13;;;2.40;51.50;;;;;;5072874;28;20197;-63
2022/03/23 03:01:56;;;;;;;11.57;8.25;;;2.40;49.20;;;;;;5036969;28;20233;-63
2022/03/23 03:04:24;;;;;;;13.57;8.57;;;2.40;48.50;;;;;;5072940;28;20190;-63
2022/03/23 03:06:51;;;;;;;11.88;8.45;;;2.30;49.50;;;;;;5070129;28;20608;-63
2022/03/23 03:09:20;;;;;;;14.25;7.57;;;2.20;49.20;;;;;;5053657;28;20194;-63
2022/03/23 03:11:48;;;;;;;12.30;7.88;;;2.20;48.90;;;;;;5054181;28;20312;-63
2022/03/23 03:14:15;;;;;;;13.90;8.70;;;2.20;49.20;;;;;;5053213;28;20555;-63
2022/03/23 03:16:43;;;;;;;13.32;8.30;;;2.20;49.00;;;;;;5053076;28;20198;-63
2022/03/23 03:19:12;;;;;;;12.70;7.50;;;2.10;49.00;;;;;;5064643;28;20215;-64
2022/03/23 03:21:40;;;;;;;11.70;8.00;;;2.10;49.30;;;;;;5053060;28;20197;-63
2022/03/23 03:24:08;;;;;;;12.23;8.07;;;2.00;49.70;;;;;;5053113;28;20194;-63
2022/03/23 03:26:35;;;;;;;12.68;8.18;;;2.00;49.80;;;;;;5071468;28;20186;-63
2022/03/23 03:29:04;;;;;;;11.38;7.45;;;2.00;50.30;;;;;;5056887;28;20191;-63
2022/03/23 03:31:32;;;;;;;12.38;7.95;;;2.00;50.30;;;;;;5052949;28;20218;-63
2022/03/23 03:33:59;;;;;;;15.37;9.13;;;1.90;50.20;;;;;;5027479;28;1143800;-63
2022/03/23 03:36:26;;;;;;;17.50;8.70;;;1.80;50.60;;;;;;5073841;28;20193;-63
2022/03/23 03:38:54;;;;;;;19.02;10.23;;;1.90;50.80;;;;;;5059872;28;20190;-63
2022/03/23 03:41:21;;;;;;;16.83;10.27;;;1.90;51.30;;;;;;5053852;28;20203;-63
2022/03/23 03:43:49;;;;;;;14.50;7.28;;;1.90;51.60;;;;;;5065088;28;20660;-63
2022/03/23 03:46:18;;;;;;;13.23;8.05;;;2.00;52.70;;;;;;5073471;28;20194;-63
2022/03/23 03:48:45;;;;;;;12.02;7.80;;;2.00;51.80;;;;;;5062311;28;20189;-63
2022/03/23 03:51:12;;;;;;;13.40;8.55;;;1.90;51.60;;;;;;5053575;28;20285;-63
2022/03/23 03:53:39;;;;;;;14.43;9.13;;;1.90;51.80;;;;;;5062305;28;20753;-63
2022/03/23 03:56:07;;;;;;;11.90;8.52;;;1.80;51.30;;;;;;5073556;28;20285;-63
2022/03/23 03:58:35;;;;;;;10.02;6.95;;;1.70;51.10;;;;;;5065329;28;20251;-63
2022/03/23 04:01:02;;;;;;;12.13;8.05;;;1.70;51.30;;;;;;5053488;28;20212;-63
2022/03/23 04:03:30;;;;;;;11.60;7.65;;;1.70;51.30;;;;;;5058704;28;20225;-63
2022/03/23 04:05:57;;;;;;;10.63;7.63;;;1.70;51.40;;;;;;5073430;28;20208;-63
2022/03/23 04:08:25;;;;;;;10.40;8.00;;;1.60;51.10;;;;;;5068318;28;20183;-64
2022/03/23 04:10:52;;;;;;;16.00;10.65;;;1.60;51.60;;;;;;5053334;28;20190;-63
2022/03/23 04:13:19;;;;;;;13.25;9.02;;;1.70;53.20;;;;;;5056603;28;20186;-63
2022/03/23 04:15:46;;;;;;;11.30;8.48;;;1.60;53.00;;;;;;5073338;28;20264;-64
2022/03/23 04:18:13;;;;;;;13.25;8.27;;;1.70;53.20;;;;;;5070752;28;20198;-63
2022/03/23 04:20:41;;;;;;;13.63;8.23;;;1.70;53.50;;;;;;5053173;28;20605;-63
2022/03/23 04:23:08;;;;;;;12.07;8.52;;;1.80;53.70;;;;;;5053602;28;20692;-63
2022/03/23 04:25:35;;;;;;;15.23;9.15;;;1.90;52.80;;;;;;5073148;28;20198;-63
2022/03/23 04:28:02;;;;;;;14.25;8.80;;;1.90;52.30;;;;;;5073269;28;20208;-63
2022/03/23 04:30:31;;;;;;;13.27;8.60;;;1.90;51.70;;;;;;5053232;28;20190;-63
2022/03/23 04:33:00;;;;;;;23.25;9.10;;;1.80;51.90;;;;;;5052967;28;20222;-63
2022/03/23 04:35:27;;;;;;;14.57;8.77;;;1.80;52.40;;;;;;5068555;28;20224;-63
2022/03/23 04:37:55;;;;;;;13.90;8.30;;;1.90;52.40;;;;;;5052812;28;20187;-63
2022/03/23 04:40:23;;;;;;;12.18;7.93;;;2.00;52.30;;;;;;5069525;28;20186;-67
2022/03/23 04:42:50;;;;;;;12.43;8.20;;;1.90;52.10;;;;;;5072368;28;20308;-63
2022/03/23 04:45:18;;;;;;;13.77;8.23;;;1.80;52.10;;;;;;5056272;28;20191;-64
2022/03/23 04:47:45;;;;;;;9.48;7.20;;;1.70;51.80;;;;;;5052620;28;20201;-63
2022/03/23 04:50:13;;;;;;;14.65;8.32;;;1.60;51.70;;;;;;5066890;28;20282;-63
2022/03/23 04:52:42;;;;;;;10.52;7.68;;;1.50;52.00;;;;;;5072947;28;20189;-63
2022/03/23 04:55:12;;;;;;;12.70;7.05;;;1.50;52.00;;;;;;5058823;28;20193;-65
2022/03/23 04:57:39;;;;;;;11.40;7.43;;;1.50;52.20;;;;;;5052700;28;20240;-63
2022/03/23 05:00:10;;;;;;;14.73;8.18;;;1.50;52.40;;;;;;5064390;28;20192;-63
2022/03/23 05:02:38;;;;;;;14.00;7.90;;;1.50;52.20;;;;;;5072780;28;20249;-63
2022/03/23 05:05:06;;;;;;;15.07;8.20;;;1.50;52.40;;;;;;5054824;28;20289;-63
2022/03/23 05:07:33;;;;;;;11.57;7.28;;;1.60;52.50;;;;;;5052506;28;20195;-63
2022/03/23 05:10:00;;;;;;;17.52;7.53;;;1.60;52.70;;;;;;5068242;28;20186;-63
2022/03/23 05:12:28;;;;;;;14.40;7.90;;;1.70;52.70;;;;;;5060661;28;20198;-63
2022/03/23 05:14:55;;;;;;;11.80;7.25;;;1.70;52.40;;;;;;5052194;28;20198;-63
2022/03/23 05:17:22;;;;;;;15.00;8.43;;;1.70;51.00;;;;;;5062360;28;20268;-64
2022/03/23 05:19:49;;;;;;;15.77;9.27;;;1.70;50.90;;;;;;5072371;28;20189;-63
2022/03/23 05:22:16;;;;;;;10.45;7.57;;;1.70;51.40;;;;;;5057745;28;20620;-63
2022/03/23 05:24:44;;;;;;;14.13;8.52;;;1.60;51.10;;;;;;5052479;28;20312;-63
2022/03/23 05:27:11;;;;;;;14.52;9.50;;;1.60;51.00;;;;;;5064878;28;20587;-63
2022/03/23 05:29:43;;;;;;;12.98;7.72;;;1.60;50.30;;;;;;5072271;28;20194;-64
2022/03/23 05:32:26;;;;;;;13.15;8.40;;;1.50;50.30;;;;;;5060313;28;20591;-64
2022/03/23 05:34:53;;;;;;;12.52;7.70;;;1.50;50.10;;;;;;5051752;28;20230;-63
2022/03/23 05:37:20;;;;;;;11.40;8.07;;;1.50;49.90;;;;;;5064444;28;20185;-63
2022/03/23 05:40:00;;;;;;;12.55;7.22;;;1.50;50.20;;;;;;5063223;28;20524;-63
2022/03/23 05:42:27;;;;;;;17.10;8.50;;;1.50;50.60;;;;;;5058156;28;20313;-63
2022/03/23 05:44:56;;;;;;;12.77;8.02;;;1.60;51.60;;;;;;5072155;28;20194;-63
2022/03/23 05:47:23;;;;;;;14.82;8.88;;;1.70;52.10;;;;;;5066161;28;20711;-63
2022/03/23 05:49:50;;;;;;;14.73;8.93;;;1.80;52.20;;;;;;5052134;28;20190;-64
2022/03/23 05:52:18;;;;;;;14.55;7.50;;;1.70;51.20;;;;;;5050065;28;20674;-63
2022/03/23 05:54:45;;;;;;;15.60;10.80;;;1.70;51.50;;;;;;5049264;28;20190;-63
2022/03/23 05:57:13;;;;;;;14.30;8.88;;;1.70;51.60;;;;;;5050043;28;20331;-63
2022/03/23 05:59:40;;;;;;;11.90;8.07;;;1.60;51.90;;;;;;5050613;28;20191;-64
2022/03/23 06:02:08;;;;;;;13.60;7.47;;;1.60;52.20;;;;;;5049997;28;20197;-63
2022/03/23 06:04:35;;;;;;;12.90;7.65;;;1.60;50.80;;;;;;5050356;28;20281;-63
2022/03/23 06:07:02;;;;;;;11.88;7.53;;;1.60;51.00;;;;;;5053291;28;20189;-63
2022/03/23 06:09:29;;;;;;;11.85;7.60;;;1.60;51.40;;;;;;5050519;28;20198;-63
2022/03/23 06:11:57;;;;;;;11.68;7.18;;;1.60;51.90;;;;;;5049851;28;20245;-64
2022/03/23 06:14:24;;;;;;;11.88;7.10;;;1.70;52.20;;;;;;5050053;28;20273;-63
2022/03/23 06:16:52;;;;;;;19.40;8.52;;;1.70;52.80;;;;;;5050388;28;20210;-63
2022/03/23 06:19:20;;;;;;;15.82;10.30;;;1.80;53.00;;;;;;5050290;28;20229;-63
2022/03/23 06:21:47;;;;;;;22.88;11.52;;;1.90;53.10;;;;;;5049841;28;20190;-64
2022/03/23 06:24:14;;;;;;;12.35;8.68;;;2.00;53.70;;;;;;5051422;28;20213;-64
2022/03/23 06:26:41;;;;;;;16.75;8.73;;;2.30;53.80;;;;;;5052679;28;20207;-63
2022/03/23 06:29:08;;;;;;;142.77;60.05;;;2.40;53.30;;;;;;5053772;28;20190;-63
2022/03/23 06:31:35;;;;;;;147.63;62.00;;;2.60;53.20;;;;;;5053347;28;20653;-64
2022/03/23 06:34:04;;;;;;;96.38;42.42;;;2.90;53.40;;;;;;5054469;28;20214;-63
2022/03/23 06:36:32;;;;;;;61.45;31.40;;;3.10;53.30;;;;;;5053725;28;20199;-63
2022/03/23 06:38:59;;;;;;;30.90;17.23;;;3.40;53.20;;;;;;5053942;28;20545;-63
2022/03/23 06:41:26;;;;;;;19.60;10.40;;;3.60;53.00;;;;;;5048943;28;20653;-64
2022/03/23 06:43:53;;;;;;;13.98;8.95;;;3.90;52.70;;;;;;5058211;28;20305;-63
2022/03/23 06:46:20;;;;;;;18.65;10.82;;;4.10;52.30;;;;;;5052826;28;20222;-63
2022/03/23 06:48:47;;;;;;;16.70;11.02;;;4.30;52.00;;;;;;5053497;28;20278;-64
2022/03/23 06:51:15;;;;;;;20.45;10.20;;;4.50;51.60;;;;;;5053128;28;20548;-64
2022/03/23 06:53:43;;;;;;;25.85;13.73;;;4.70;51.40;;;;;;5055973;28;20222;-64
2022/03/23 06:56:11;;;;;;;25.98;15.65;;;5.10;50.90;;;;;;5052801;28;20274;-64
2022/03/23 06:58:38;;;;;;;37.60;25.95;;;5.40;50.60;;;;;;5053453;28;20221;-64
2022/03/23 07:01:05;;;;;;;27.83;19.60;;;5.80;49.70;;;;;;5053762;28;20230;-63
2022/03/23 07:03:33;;;;;;;25.23;17.45;;;6.20;49.60;;;;;;5053199;28;20309;-64
2022/03/23 07:06:00;;;;;;;21.02;14.98;;;6.80;49.10;;;;;;5053695;28;20226;-64
2022/03/23 07:11:12;;;;;;;22.83;14.50;;;8.10;48.50;;;;;;5049899;28;20694;-64
2022/03/23 07:13:40;;;;;;;20.05;12.23;;;9.30;48.70;;;;;;5051830;28;20285;-65
2022/03/23 07:16:07;;;;;;;20.60;13.48;;;10.50;45.60;;;;;;5047249;28;20191;-64
2022/03/23 07:18:34;;;;;;;28.42;14.80;;;11.90;42.70;;;;;;5053855;28;20770;-64
2022/03/23 07:21:04;;;;;;;22.13;13.40;;;13.40;42.00;;;;;;5052925;28;20187;-64
2022/03/23 07:23:31;;;;;;;21.52;14.75;;;15.40;38.30;;;;;;5052561;28;20693;-64
2022/03/23 07:25:58;;;;;;;19.90;13.07;;;17.50;34.10;;;;;;5054687;28;20187;-64
2022/03/23 07:28:27;;;;;;;24.20;14.45;;;19.40;29.30;;;;;;5053578;28;20546;-64
2022/03/23 07:30:54;;;;;;;16.10;11.85;;;21.00;26.40;;;;;;5052576;28;20214;-66
2022/03/23 07:33:21;;;;;;;17.70;14.57;;;22.20;25.10;;;;;;5048421;28;20218;-65
2022/03/23 07:35:48;;;;;;;20.40;13.90;;;23.60;24.30;;;;;;5052620;28;20425;-65
2022/03/23 07:38:15;;;;;;;17.00;14.20;;;25.00;22.30;;;;;;5051296;28;20931;-65
2022/03/23 07:40:42;;;;;;;19.67;14.50;;;26.20;19.80;;;;;;5055689;28;20521;-65
2022/03/23 07:43:09;;;;;;;24.87;14.80;;;27.50;20.30;;;;;;5048402;28;20507;-66
2022/03/23 07:45:38;;;;;;;23.37;13.57;;;28.50;18.50;;;;;;5052414;28;20516;-65
2022/03/23 07:48:05;;;;;;;16.77;11.00;;;29.60;16.70;;;;;;5051990;28;20433;-63
2022/03/23 07:50:32;;;;;;;19.40;14.10;;;30.60;16.00;;;;;;5051899;28;20437;-63
2022/03/23 07:52:59;;;;;;;43.43;31.60;;;31.40;14.80;;;;;;5052202;28;20491;-63
2022/03/23 07:55:26;;;;;;;14.30;12.30;;;32.60;14.80;;;;;;5052012;28;20441;-63
2022/03/23 07:57:53;;;;;;;18.50;13.17;;;33.50;12.40;;;;;;5053910;28;20451;-63
2022/03/23 08:00:21;;;;;;;49.40;39.20;;;34.10;12.50;;;;;;5051366;28;20428;-63
2022/03/23 08:02:50;;;;;;;24.70;21.80;;;35.00;11.90;;;;;;5052179;28;20478;-62
2022/03/23 08:05:17;;;;;;;7.77;6.97;;;36.10;11.60;;;;;;5052142;28;20771;-62
2022/03/23 08:07:45;;;;;;;6.93;6.23;;;36.60;8.90;;;;;;5051853;28;20447;-65
2022/03/23 08:10:13;;;;;;;8.57;7.30;;;37.20;8.90;;;;;;5047622;28;20795;-63
2022/03/23 08:12:40;;;;;;;8.63;6.43;;;37.90;9.50;;;;;;5052015;28;20453;-65
2022/03/23 08:15:09;;;;;;;7.97;7.17;;;38.60;8.60;;;;;;5052219;28;20519;-66
2022/03/23 08:17:38;;;;;;;6.73;6.10;;;39.30;8.30;;;;;;5051167;28;20443;-66
2022/03/23 08:22:52;;;;;;;7.47;6.40;;;40.80;7.50;;;;;;5051626;28;20424;-63
2022/03/23 08:25:23;;;;;;;10.23;6.00;;;41.60;7.30;;;;;;5054073;28;20950;-62
2022/03/23 08:27:50;;;;;;;6.90;5.70;;;42.00;6.60;;;;;;5051651;28;20441;-63
2022/03/23 08:30:17;;;;;;;6.93;6.33;;;42.50;5.30;;;;;;5051053;28;20448;-64
2022/03/23 08:32:44;;;;;;;9.33;8.33;;;42.60;5.80;;;;;;5051625;28;20456;-64
2022/03/23 08:35:12;;;;;;;11.17;9.27;;;42.90;4.70;;;;;;5051902;28;20448;-63
2022/03/23 08:37:40;;;;;;;9.33;8.33;;;43.30;5.20;;;;;;5051497;28;20448;-66
2022/03/23 08:40:08;;;;;;;9.97;7.40;;;43.80;5.30;;;;;;5051049;28;20520;-63
2022/03/23 08:42:36;;;;;;;9.63;6.83;;;44.40;4.90;;;;;;5051228;28;20491;-63
2022/03/23 08:45:03;;;;;;;9.60;8.10;;;44.80;4.20;;;;;;5052303;28;21016;-63
2022/03/23 08:47:30;;;;;;;10.27;7.40;;;45.20;4.60;;;;;;5051268;28;20444;-66
2022/03/23 08:49:57;;;;;;;9.13;7.93;;;45.70;4.50;;;;;;5050779;28;20456;-63
2022/03/23 08:52:28;;;;;;;10.10;7.50;;;46.30;4.60;;;;;;5051199;28;20491;-64
2022/03/23 08:54:55;;;;;;;12.17;8.13;;;47.00;4.20;;;;;;5051603;28;20456;-64
2022/03/23 08:57:23;;;;;;;8.43;7.73;;;47.60;4.00;;;;;;5050603;28;20447;-64
2022/03/23 08:59:50;;;;;;;8.83;8.00;;;48.10;3.60;;;;;;5053086;28;20927;-64
2022/03/23 09:02:17;;;;;;;9.03;7.80;;;48.50;3.30;;;;;;5050870;28;20487;-66
2022/03/23 09:04:44;;;;;;;9.60;6.90;;;48.70;3.30;;;;;;5052206;28;20511;-64
2022/03/23 09:07:11;;;;;;;10.10;8.20;;;49.20;3.10;;;;;;5050553;28;20439;-64
2022/03/23 09:09:39;;;;;;;8.80;7.90;;;49.70;2.80;;;;;;5051055;28;20433;-65
2022/03/23 09:12:07;;;;;;;7.27;6.67;;;50.10;2.90;;;;;;5051306;28;20443;-64
2022/03/23 09:14:34;;;;;;;8.20;7.50;;;50.30;2.70;;;;;;5051037;28;20495;-65
2022/03/23 09:17:01;;;;;;;7.90;7.20;;;50.70;2.70;;;;;;5050164;28;20433;-64
2022/03/23 09:19:29;;;;;;;8.77;8.07;;;51.00;2.60;;;;;;5050869;28;20440;-64
2022/03/23 09:21:56;;;;;;;9.20;8.40;;;51.20;2.20;;;;;;5050473;28;20439;-65
2022/03/23 09:24:25;;;;;;;9.93;8.03;;;51.20;2.20;;;;;;5052933;28;20572;-65
2022/03/23 09:26:54;;;;;;;8.37;7.53;;;51.30;2.30;;;;;;5050764;28;20945;-65
2022/03/23 09:29:22;;;;;;;10.47;8.13;;;51.60;2.60;;;;;;5051850;28;20532;-64
2022/03/23 09:31:49;;;;;;;9.20;8.03;;;52.00;2.50;;;;;;5050766;28;20927;-64
2022/03/23 09:34:16;;;;;;;8.63;7.90;;;52.30;2.10;;;;;;5049905;28;20526;-64
2022/03/23 09:39:27;;;;;;;9.50;7.80;;;53.10;2.10;;;;;;5050370;28;20574;-65
2022/03/23 09:41:58;;;;;;;8.67;7.97;;;53.30;1.80;;;;;;5050923;28;20581;-64
2022/03/23 09:44:28;;;;;;;12.23;8.23;;;53.60;1.90;;;;;;5050176;28;20516;-64
2022/03/23 09:46:56;;;;;;;8.63;7.77;;;53.90;1.90;;;;;;5050260;28;20445;-65
2022/03/23 09:49:25;;;;;;;10.50;7.60;;;54.10;1.70;;;;;;5050641;28;20947;-64
2022/03/23 09:51:53;;;;;;;9.43;8.53;;;54.10;1.40;;;;;;5050397;28;20527;-64
2022/03/23 09:54:22;;;;;;;9.33;8.53;;;54.00;1.30;;;;;;5050061;28;20464;-65
2022/03/23 09:56:49;;;;;;;9.63;8.07;;;53.90;1.50;;;;;;5050335;28;21079;-64
2022/03/23 09:59:18;;;;;;;9.27;8.47;;;53.80;1.10;;;;;;5050620;28;20487;-65
2022/03/23 10:02:17;;;;;;;8.63;7.73;;;53.90;1.10;;;;;;5053089;28;20444;-64
2022/03/23 10:05:44;;;;;;;9.50;8.70;;;53.90;1.20;;;;;;5050547;28;20472;-67
2022/03/23 10:08:44;;;;;;;8.40;7.70;;;54.10;1.70;;;;;;5011738;28;20446;-65
2022/03/23 10:12:07;;;;;;;9.47;8.67;;;54.20;1.30;;;;;;5011954;28;20771;-65
2022/03/23 10:15:07;;;;;;;9.73;8.73;;;54.50;1.00;;;;;;5053379;28;20965;-65
2022/03/23 10:18:08;;;;;;;8.43;7.83;;;54.70;1.00;;;;;;5031296;28;20932;-64
2022/03/23 10:20:35;;;;;;;8.63;8.03;;;54.90;1.00;;;;;;5050917;28;20488;-64
2022/03/23 10:23:02;;;;;;;8.50;7.80;;;54.80;1.00;;;;;;5053828;28;20993;-64
2022/03/23 10:25:29;;;;;;;9.13;8.23;;;54.80;1.00;;;;;;5057374;28;20944;-65
2022/03/23 10:27:57;;;;;;;9.50;8.80;;;54.80;1.00;;;;;;5054182;28;20443;-64
2022/03/23 10:30:33;;;;;;;9.27;7.90;;;54.70;1.00;;;;;;5053827;28;20437;-64
2022/03/23 10:33:02;;;;;;;9.20;8.50;;;54.40;1.00;;;;;;5053352;28;20510;-66
2022/03/23 10:35:37;;;;;;;8.90;8.00;;;54.70;1.00;;;;;;5049764;28;20566;-64
2022/03/23 10:38:12;;;;;;;8.80;8.17;;;54.80;1.00;;;;;;5053518;28;20436;-71
2022/03/23 10:40:41;;;;;;;10.43;9.40;;;55.00;1.00;;;;;;5050311;28;20440;-65
2022/03/23 10:43:09;;;;;;;8.53;7.93;;;55.40;1.00;;;;;;5053977;28;20441;-65
2022/03/23 10:45:36;;;;;;;12.63;7.50;;;55.80;1.00;;;;;;5054703;28;20465;-64
2022/03/23 10:48:13;;;;;;;8.87;8.10;;;56.20;1.00;;;;;;5053211;28;20527;-64
2022/03/23 10:50:51;;;;;;;8.10;7.50;;;56.60;1.00;;;;;;5054120;28;20448;-65
2022/03/23 10:53:30;;;;;;;8.90;8.23;;;56.50;1.00;;;;;;5053033;28;20447;-64
2022/03/23 10:55:57;;;;;;;11.90;9.40;;;56.10;1.00;;;;;;5053875;28;20483;-64
2022/03/23 10:58:26;;;;;;;9.10;8.40;;;55.90;1.00;;;;;;5053181;28;20468;-65
2022/03/23 11:01:00;;;;;;;8.37;7.63;;;55.50;1.00;;;;;;5049599;28;20433;-64
2022/03/23 11:03:40;;;;;;;9.27;8.30;;;55.50;1.00;;;;;;5052517;28;20467;-65
2022/03/23 11:06:08;;;;;;;9.43;8.70;;;55.60;1.00;;;;;;5052165;28;20433;-64
2022/03/23 11:08:35;;;;;;;10.00;9.20;;;55.70;1.00;;;;;;5053687;28;20460;-64
2022/03/23 11:16:47;;;;;;;12.10;9.50;;;55.50;1.00;;;;;;5009506;28;20437;-64
2022/03/23 11:19:18;;;;;;;8.50;7.90;;;55.90;1.00;;;;;;5052877;28;20472;-64
2022/03/23 11:22:04;;;;;;;9.57;8.67;;;56.00;1.00;;;;;;5054325;28;20758;-64
2022/03/23 11:24:33;;;;;;;11.27;10.37;;;56.00;1.00;;;;;;5048879;28;20538;-64
2022/03/23 11:27:04;;;;;;;10.63;8.90;;;55.80;1.00;;;;;;5053381;28;20445;-64
2022/03/23 11:29:32;;;;;;;9.10;8.40;;;56.00;1.00;;;;;;5055296;28;20447;-64
2022/03/23 11:32:04;;;;;;;9.63;8.97;;;56.40;1.00;;;;;;5052867;28;20448;-64
2022/03/23 11:34:34;;;;;;;10.43;9.63;;;56.70;1.00;;;;;;5056421;28;20489;-64
2022/03/23 11:37:03;;;;;;;9.63;8.73;;;56.70;1.00;;;;;;5054206;28;20443;-65
2022/03/23 11:39:31;;;;;;;9.97;8.97;;;56.90;1.00;;;;;;5049313;28;20441;-63
2022/03/23 11:42:03;;;;;;;9.43;8.73;;;56.90;1.00;;;;;;5054693;28;21018;-63
2022/03/23 11:44:31;;;;;;;9.63;8.63;;;56.80;1.00;;;;;;5054076;28;20447;-64
2022/03/23 11:47:01;;;;;;;9.20;8.20;;;55.90;1.00;;;;;;5050345;28;21341;-64
2022/03/23 11:49:34;;;;;;;9.20;8.27;;;55.60;1.00;;;;;;5052958;28;21101;-64
2022/03/23 11:52:21;;;;;;;9.87;9.07;;;55.70;1.00;;;;;;5051336;28;20959;-68
2022/03/23 11:58:04;;;;;;;10.00;9.10;;;55.50;1.00;;;;;;5050713;28;20416;-64
2022/03/23 12:00:39;;;;;;;9.40;8.60;;;55.00;1.00;;;;;;5052621;28;20480;-63
2022/03/23 12:03:07;;;;;;;8.63;7.90;;;54.40;1.00;;;;;;5052746;28;20472;-64
2022/03/23 12:05:36;;;;;;;10.63;9.60;;;54.30;1.00;;;;;;5052454;28;20472;-63
2022/03/23 12:08:04;;;;;;;9.23;8.53;;;54.40;1.00;;;;;;5052285;28;20995;-63
2022/03/23 12:10:32;;;;;;;9.70;8.80;;;54.30;1.00;;;;;;5048695;28;20519;-64
2022/03/23 12:13:13;;;;;;;9.50;8.60;;;54.40;1.00;;;;;;5058098;28;20441;-63
2022/03/23 12:15:55;;;;;;;8.43;7.80;;;54.40;1.00;;;;;;5053733;28;20522;-64
2022/03/23 12:18:40;;;;;;;8.90;8.20;;;54.30;1.00;;;;;;5054486;28;20559;-64
2022/03/23 12:21:12;;;;;;;8.83;8.03;;;54.00;1.00;;;;;;5056551;28;20444;-63
2022/03/23 12:23:53;;;;;;;8.83;8.13;;;53.90;1.00;;;;;;5056645;28;20779;-64
2022/03/23 12:26:29;;;;;;;9.30;8.60;;;53.80;1.00;;;;;;5050130;28;20463;-64
2022/03/23 12:29:01;;;;;;;8.80;8.00;;;54.10;1.00;;;;;;5056221;28;20483;-65
2022/03/23 12:31:36;;;;;;;9.03;8.13;;;53.90;1.00;;;;;;5055336;28;20657;-63
2022/03/23 12:34:07;;;;;;;9.30;8.40;;;53.90;1.00;;;;;;5049075;28;20476;-63
2022/03/23 12:39:32;;;;;;;9.03;8.23;;;53.30;1.00;;;;;;5045301;28;20428;-63
2022/03/23 12:42:02;;;;;;;10.00;8.57;;;52.40;1.00;;;;;;5053216;28;20499;-63
2022/03/23 12:44:31;;;;;;;9.67;8.87;;;52.20;1.00;;;;;;5053998;28;20527;-65
2022/03/23 12:47:06;;;;;;;9.00;8.30;;;52.00;1.00;;;;;;5048136;28;20449;-63
2022/03/23 12:58:09;;;;;;;10.00;8.07;;;48.10;1.00;;;;;;5052023;28;20430;-63
2022/03/23 13:00:41;;;;;;;8.57;7.87;;;47.10;1.00;;;;;;5051455;28;20436;-64
2022/03/23 13:03:47;;;;;;;8.87;8.13;;;46.30;1.00;;;;;;5048050;28;20788;-63
2022/03/23 13:06:16;;;;;;;8.00;7.30;;;45.50;1.00;;;;;;5051422;28;20536;-63
2022/03/23 13:08:51;;;;;;;9.30;6.87;;;44.20;1.10;;;;;;5050890;28;20465;-64
2022/03/23 13:11:24;;;;;;;5.80;5.20;;;42.60;1.40;;;;;;5051566;28;20440;-64
2022/03/23 13:13:53;;;;;;;6.27;5.67;;;41.50;1.00;;;;;;5051346;28;20781;-64
2022/03/23 13:16:22;;;;;;;6.37;5.70;;;40.80;1.00;;;;;;5047463;28;20596;-64
2022/03/23 13:18:50;;;;;;;8.13;6.50;;;39.50;1.00;;;;;;5051364;28;20530;-63
2022/03/23 13:21:20;;;;;;;7.63;6.93;;;37.90;1.00;;;;;;5051460;28;20499;-64
2022/03/23 13:23:56;;;;;;;7.50;6.80;;;36.60;1.50;;;;;;5047115;28;20437;-64
2022/03/23 13:26:25;;;;;;;7.20;6.40;;;35.20;2.40;;;;;;5051087;28;20491;-63
2022/03/23 13:28:54;;;;;;;10.73;6.27;;;34.10;2.90;;;;;;5050942;28;20443;-65
2022/03/23 13:31:29;;;;;;;8.37;7.57;;;33.00;3.60;;;;;;5050965;28;20429;-62
2022/03/23 13:33:56;;;;;;;9.40;8.50;;;32.10;4.90;;;;;;5050856;28;20487;-62
2022/03/23 13:36:25;;;;;;;8.37;7.57;;;31.20;5.00;;;;;;5054506;28;20526;-63